SWA824 KRDU-KATL
Flight info
| Callsign | SWA824 |
|---|---|
| Flight time | 1h 7m |
| Altitude | 34000 |
| Route | SHPRD4 SHPRD LEAVI OZZZI2 |
| Aircraft | B739/M-SDE2E3FGHIRWXY/LB1 |
Departure
| Time | 2026-05-07 05:34 |
|---|---|
| Airport | Raleigh-Durham International Airport (KRDU) |
Arrival
| Time | 2026-05-07 06:42 |
|---|---|
| Airport | Hartsfield Jackson Atlanta International Airport (KATL) |
| Time | Latitude | Longitude | Altitude | Speed | Heading |
|---|---|---|---|---|---|
| 2026-05-07 05:22 | 35.87872 | -78.79269 | 413 ft | 0 kts | 134° |
| 2026-05-07 05:26 | 35.87874 | -78.79271 | 415 ft | 3 kts | 134° |
| 2026-05-07 05:27 | 35.87888 | -78.79289 | 424 ft | 3 kts | 134° |
| 2026-05-07 05:27 | 35.87903 | -78.79304 | 418 ft | 3 kts | 141° |
| 2026-05-07 05:27 | 35.87916 | -78.79312 | 418 ft | 2 kts | 197° |
| 2026-05-07 05:27 | 35.87927 | -78.79301 | 419 ft | 1 kts | 265° |
| 2026-05-07 05:28 | 35.87928 | -78.79295 | 419 ft | 1 kts | 318° |
| 2026-05-07 05:28 | 35.87922 | -78.79290 | 419 ft | 0 kts | 349° |
| 2026-05-07 05:29 | 35.87926 | -78.79290 | 420 ft | 4 kts | 355° |
| 2026-05-07 05:30 | 35.87990 | -78.79238 | 422 ft | 20 kts | 48° |
| 2026-05-07 05:30 | 35.88050 | -78.79154 | 428 ft | 0 kts | 46° |
| 2026-05-07 05:30 | 35.88081 | -78.79117 | 423 ft | 11 kts | 43° |
| 2026-05-07 05:30 | 35.88141 | -78.79010 | 423 ft | 9 kts | 86° |
| 2026-05-07 05:31 | 35.88089 | -78.78936 | 418 ft | 17 kts | 147° |
| 2026-05-07 05:31 | 35.87982 | -78.78814 | 410 ft | 23 kts | 133° |
| 2026-05-07 05:31 | 35.87836 | -78.78732 | 422 ft | 23 kts | 150° |
| 2026-05-07 05:31 | 35.87715 | -78.78597 | 432 ft | 25 kts | 136° |
| 2026-05-07 05:32 | 35.87674 | -78.78548 | 432 ft | 1 kts | 137° |
| 2026-05-07 05:32 | 35.87644 | -78.78505 | 427 ft | 7 kts | 119° |
| 2026-05-07 05:32 | 35.87694 | -78.78406 | 419 ft | 22 kts | 45° |
| 2026-05-07 05:32 | 35.87830 | -78.78238 | 428 ft | 32 kts | 45° |
| 2026-05-07 05:33 | 35.87967 | -78.78064 | 426 ft | 16 kts | 54° |
| 2026-05-07 05:33 | 35.87924 | -78.77976 | 423 ft | 19 kts | 179° |
| 2026-05-07 05:33 | 35.87864 | -78.78013 | 419 ft | 0 kts | 221° |
| 2026-05-07 05:33 | 35.87855 | -78.78022 | 427 ft | 16 kts | 223° |
| 2026-05-07 05:34 | 35.87553 | -78.78384 | 426 ft | 102 kts | 224° |
| 2026-05-07 05:34 | 35.86869 | -78.79218 | 468 ft | 170 kts | 223° |
| 2026-05-07 05:34 | 35.86000 | -78.80335 | 1220 ft | 186 kts | 226° |
| 2026-05-07 05:34 | 35.85259 | -78.81574 | 2426 ft | 173 kts | 243° |
| 2026-05-07 05:35 | 35.84934 | -78.82939 | 3692 ft | 161 kts | 261° |
| 2026-05-07 05:35 | 35.84984 | -78.84290 | 4905 ft | 154 kts | 267° |
| 2026-05-07 05:35 | 35.85050 | -78.85582 | 5913 ft | 154 kts | 266° |
| 2026-05-07 05:35 | 35.85092 | -78.87042 | 6211 ft | 186 kts | 266° |
| 2026-05-07 05:36 | 35.85115 | -78.88773 | 6469 ft | 217 kts | 266° |
| 2026-05-07 05:36 | 35.85117 | -78.90766 | 6725 ft | 248 kts | 266° |
| 2026-05-07 05:36 | 35.85092 | -78.93007 | 7037 ft | 273 kts | 265° |
| 2026-05-07 05:36 | 35.85062 | -78.94584 | 7483 ft | 280 kts | 265° |
| 2026-05-07 05:37 | 35.84976 | -78.97802 | 8614 ft | 284 kts | 265° |
| 2026-05-07 05:37 | 35.84895 | -79.00201 | 9430 ft | 289 kts | 265° |
| 2026-05-07 05:37 | 35.84830 | -79.01876 | 9716 ft | 289 kts | 265° |
| 2026-05-07 05:37 | 35.84734 | -79.04365 | 9966 ft | 292 kts | 265° |
| 2026-05-07 05:38 | 35.84629 | -79.06848 | 10001 ft | 293 kts | 264° |
| 2026-05-07 05:38 | 35.84514 | -79.09349 | 9998 ft | 290 kts | 264° |
| 2026-05-07 05:38 | 35.84394 | -79.11827 | 10021 ft | 290 kts | 265° |
| 2026-05-07 05:38 | 35.84276 | -79.14393 | 10241 ft | 308 kts | 265° |
| 2026-05-07 05:39 | 35.84153 | -79.17065 | 10813 ft | 317 kts | 265° |
| 2026-05-07 05:39 | 35.84026 | -79.19794 | 11579 ft | 320 kts | 265° |
| 2026-05-07 05:39 | 35.83898 | -79.22538 | 12424 ft | 321 kts | 265° |
| 2026-05-07 05:39 | 35.83766 | -79.25303 | 13193 ft | 324 kts | 265° |
| 2026-05-07 05:40 | 35.83632 | -79.28092 | 13900 ft | 328 kts | 266° |
| 2026-05-07 05:40 | 35.83492 | -79.30907 | 14600 ft | 330 kts | 265° |
| 2026-05-07 05:40 | 35.83297 | -79.33692 | 15345 ft | 330 kts | 264° |
| 2026-05-07 05:40 | 35.83073 | -79.36547 | 16075 ft | 332 kts | 265° |
| 2026-05-07 05:41 | 35.82847 | -79.39384 | 16788 ft | 333 kts | 265° |
| 2026-05-07 05:41 | 35.82623 | -79.42237 | 17153 ft | 345 kts | 265° |
| 2026-05-07 05:41 | 35.82395 | -79.45205 | 17642 ft | 350 kts | 265° |
| 2026-05-07 05:41 | 35.82166 | -79.48202 | 18311 ft | 351 kts | 265° |
| 2026-05-07 05:42 | 35.81937 | -79.51197 | 18880 ft | 352 kts | 265° |
| 2026-05-07 05:42 | 35.81672 | -79.54206 | 19375 ft | 355 kts | 262° |
| 2026-05-07 05:42 | 35.81211 | -79.57214 | 19860 ft | 359 kts | 259° |
| 2026-05-07 05:42 | 35.80516 | -79.60182 | 20352 ft | 363 kts | 254° |
| 2026-05-07 05:43 | 35.79701 | -79.63137 | 20866 ft | 364 kts | 253° |
| 2026-05-07 05:43 | 35.78862 | -79.66079 | 21462 ft | 364 kts | 253° |
| 2026-05-07 05:43 | 35.78019 | -79.69032 | 21899 ft | 368 kts | 253° |
| 2026-05-07 05:43 | 35.77170 | -79.72021 | 22314 ft | 372 kts | 253° |
| 2026-05-07 05:44 | 35.76318 | -79.75039 | 22770 ft | 374 kts | 254° |
| 2026-05-07 05:44 | 35.75465 | -79.78076 | 23228 ft | 376 kts | 254° |
| 2026-05-07 05:44 | 35.74610 | -79.81128 | 23696 ft | 377 kts | 254° |
| 2026-05-07 05:44 | 35.73757 | -79.84174 | 24179 ft | 376 kts | 253° |
| 2026-05-07 05:45 | 35.72905 | -79.87225 | 24553 ft | 378 kts | 254° |
| 2026-05-07 05:45 | 35.72057 | -79.90258 | 24882 ft | 380 kts | 254° |
| 2026-05-07 05:45 | 35.71195 | -79.93344 | 25222 ft | 382 kts | 254° |
| 2026-05-07 05:45 | 35.70326 | -79.96449 | 25575 ft | 384 kts | 254° |
| 2026-05-07 05:46 | 35.69454 | -79.99560 | 25940 ft | 385 kts | 254° |
| 2026-05-07 05:46 | 35.68591 | -80.02634 | 26339 ft | 385 kts | 253° |
| 2026-05-07 05:46 | 35.67718 | -80.05739 | 26886 ft | 381 kts | 253° |
| 2026-05-07 05:46 | 35.66856 | -80.08802 | 27454 ft | 378 kts | 254° |
| 2026-05-07 05:47 | 35.66000 | -80.11841 | 28012 ft | 375 kts | 254° |
| 2026-05-07 05:47 | 35.65146 | -80.14870 | 28526 ft | 373 kts | 254° |
| 2026-05-07 05:47 | 35.64309 | -80.17837 | 29125 ft | 369 kts | 253° |
| 2026-05-07 05:47 | 35.63478 | -80.20775 | 30030 ft | 359 kts | 253° |
| 2026-05-07 05:48 | 35.62664 | -80.23653 | 30555 ft | 356 kts | 253° |
| 2026-05-07 05:48 | 35.61851 | -80.26528 | 30927 ft | 356 kts | 253° |
| 2026-05-07 05:48 | 35.61039 | -80.29397 | 31331 ft | 355 kts | 253° |
| 2026-05-07 05:48 | 35.60233 | -80.32240 | 31867 ft | 350 kts | 253° |
| 2026-05-07 05:49 | 35.59436 | -80.35047 | 32443 ft | 345 kts | 253° |
| 2026-05-07 05:49 | 35.58648 | -80.37822 | 32951 ft | 342 kts | 253° |
| 2026-05-07 05:49 | 35.57866 | -80.40570 | 33382 ft | 340 kts | 253° |
| 2026-05-07 05:49 | 35.57086 | -80.43311 | 33665 ft | 342 kts | 253° |
| 2026-05-07 05:50 | 35.56293 | -80.46102 | 33704 ft | 349 kts | 253° |
| 2026-05-07 05:50 | 35.54671 | -80.51794 | 33828 ft | 361 kts | 253° |
| 2026-05-07 05:50 | 35.53836 | -80.54718 | 33962 ft | 365 kts | 252° |
| 2026-05-07 05:51 | 35.52990 | -80.57675 | 33979 ft | 369 kts | 252° |
| 2026-05-07 05:51 | 35.51274 | -80.63659 | 34001 ft | 373 kts | 252° |
| 2026-05-07 05:52 | 35.49543 | -80.69683 | 34008 ft | 375 kts | 252° |
| 2026-05-07 05:52 | 35.47802 | -80.75726 | 34007 ft | 375 kts | 252° |
| 2026-05-07 05:53 | 35.46061 | -80.81761 | 34000 ft | 375 kts | 252° |
| 2026-05-07 05:53 | 35.44329 | -80.87751 | 33995 ft | 374 kts | 252° |
| 2026-05-07 05:54 | 35.42588 | -80.93760 | 33982 ft | 372 kts | 251° |
| 2026-05-07 05:54 | 35.40850 | -80.99743 | 33930 ft | 374 kts | 252° |
| 2026-05-07 05:55 | 35.39101 | -81.05761 | 33976 ft | 384 kts | 252° |
| 2026-05-07 05:55 | 35.37285 | -81.11990 | 33988 ft | 392 kts | 252° |
| 2026-05-07 05:56 | 35.35434 | -81.18322 | 33972 ft | 395 kts | 252° |
| 2026-05-07 05:56 | 35.33573 | -81.24675 | 33986 ft | 396 kts | 252° |
| 2026-05-07 05:57 | 35.31716 | -81.30996 | 33977 ft | 386 kts | 251° |
| 2026-05-07 05:57 | 35.30825 | -81.34024 | 33963 ft | 373 kts | 251° |
| 2026-05-07 05:57 | 35.29959 | -81.36965 | 33963 ft | 369 kts | 251° |
| 2026-05-07 05:58 | 35.28215 | -81.42883 | 33962 ft | 371 kts | 251° |
| 2026-05-07 05:58 | 35.26458 | -81.48832 | 33951 ft | 372 kts | 251° |
| 2026-05-07 05:59 | 35.24695 | -81.54789 | 33941 ft | 373 kts | 250° |
| 2026-05-07 05:59 | 35.22921 | -81.60767 | 33979 ft | 374 kts | 250° |
| 2026-05-07 06:00 | 35.21140 | -81.66757 | 33952 ft | 375 kts | 250° |
| 2026-05-07 06:00 | 35.19342 | -81.72794 | 33974 ft | 384 kts | 250° |
| 2026-05-07 06:01 | 35.17490 | -81.78996 | 33972 ft | 390 kts | 250° |
| 2026-05-07 06:01 | 35.15623 | -81.85239 | 33958 ft | 392 kts | 250° |
| 2026-05-07 06:02 | 35.13743 | -81.91507 | 33966 ft | 392 kts | 250° |
| 2026-05-07 06:02 | 35.11864 | -81.97760 | 33974 ft | 392 kts | 250° |
| 2026-05-07 06:03 | 35.10001 | -82.03948 | 33965 ft | 391 kts | 250° |
| 2026-05-07 06:03 | 35.08132 | -82.10139 | 33971 ft | 390 kts | 250° |
| 2026-05-07 06:04 | 35.06251 | -82.16360 | 33970 ft | 390 kts | 250° |
| 2026-05-07 06:04 | 35.04373 | -82.22562 | 33982 ft | 389 kts | 250° |
| 2026-05-07 06:05 | 35.02491 | -82.28759 | 33981 ft | 389 kts | 250° |
| 2026-05-07 06:05 | 35.00079 | -82.34653 | 33951 ft | 392 kts | 239° |
| 2026-05-07 06:06 | 34.96522 | -82.39845 | 34000 ft | 406 kts | 230° |
| 2026-05-07 06:06 | 34.92574 | -82.44758 | 34002 ft | 409 kts | 230° |
| 2026-05-07 06:07 | 34.88587 | -82.49701 | 33994 ft | 408 kts | 230° |
| 2026-05-07 06:07 | 34.84612 | -82.54651 | 33964 ft | 408 kts | 230° |
| 2026-05-07 06:08 | 34.80653 | -82.59591 | 33976 ft | 407 kts | 230° |
| 2026-05-07 06:08 | 34.76694 | -82.64530 | 33941 ft | 407 kts | 230° |
| 2026-05-07 06:09 | 34.72694 | -82.69519 | 33967 ft | 416 kts | 230° |
| 2026-05-07 06:09 | 34.68633 | -82.74573 | 33988 ft | 423 kts | 230° |
| 2026-05-07 06:10 | 34.64504 | -82.79699 | 33994 ft | 422 kts | 230° |
| 2026-05-07 06:10 | 34.60465 | -82.84699 | 33982 ft | 413 kts | 230° |
| 2026-05-07 06:11 | 34.56448 | -82.89675 | 33994 ft | 413 kts | 230° |
| 2026-05-07 06:11 | 34.52418 | -82.94660 | 33949 ft | 414 kts | 230° |
| 2026-05-07 06:12 | 34.48355 | -82.99679 | 33962 ft | 418 kts | 230° |
| 2026-05-07 06:12 | 34.44304 | -83.04677 | 33935 ft | 422 kts | 230° |
| 2026-05-07 06:13 | 34.40204 | -83.09724 | 33941 ft | 424 kts | 230° |
| 2026-05-07 06:13 | 34.36056 | -83.14822 | 33933 ft | 425 kts | 230° |
| 2026-05-07 06:14 | 34.31903 | -83.19915 | 33939 ft | 423 kts | 230° |
| 2026-05-07 06:14 | 34.27777 | -83.24971 | 33916 ft | 422 kts | 230° |
| 2026-05-07 06:15 | 34.23674 | -83.29992 | 33935 ft | 421 kts | 230° |
| 2026-05-07 06:15 | 34.19557 | -83.35023 | 33957 ft | 421 kts | 230° |
| 2026-05-07 06:16 | 34.15437 | -83.40052 | 33958 ft | 421 kts | 230° |
| 2026-05-07 06:16 | 34.11314 | -83.45075 | 33994 ft | 421 kts | 230° |
| 2026-05-07 06:17 | 34.07182 | -83.50102 | 33998 ft | 421 kts | 230° |
| 2026-05-07 06:17 | 34.03050 | -83.55121 | 33989 ft | 421 kts | 230° |
| 2026-05-07 06:18 | 33.98928 | -83.60121 | 33998 ft | 420 kts | 230° |
| 2026-05-07 06:18 | 33.94886 | -83.65010 | 33390 ft | 409 kts | 230° |
| 2026-05-07 06:18 | 33.92889 | -83.67426 | 32802 ft | 406 kts | 230° |
| 2026-05-07 06:19 | 33.90897 | -83.69836 | 32147 ft | 406 kts | 230° |
| 2026-05-07 06:19 | 33.88910 | -83.72239 | 31507 ft | 405 kts | 230° |
| 2026-05-07 06:19 | 33.86922 | -83.74643 | 30841 ft | 405 kts | 230° |
| 2026-05-07 06:19 | 33.84926 | -83.77052 | 30152 ft | 406 kts | 230° |
| 2026-05-07 06:20 | 33.82928 | -83.79462 | 29359 ft | 406 kts | 230° |
| 2026-05-07 06:20 | 33.80932 | -83.81867 | 28560 ft | 406 kts | 230° |
| 2026-05-07 06:20 | 33.78968 | -83.84233 | 27770 ft | 405 kts | 230° |
| 2026-05-07 06:20 | 33.76955 | -83.86657 | 27033 ft | 405 kts | 229° |
| 2026-05-07 06:21 | 33.74992 | -83.89017 | 26305 ft | 404 kts | 229° |
| 2026-05-07 06:21 | 33.73002 | -83.91408 | 25601 ft | 403 kts | 230° |
| 2026-05-07 06:21 | 33.71003 | -83.93776 | 24909 ft | 403 kts | 227° |
| 2026-05-07 06:21 | 33.68622 | -83.95643 | 24220 ft | 417 kts | 210° |
| 2026-05-07 06:22 | 33.65783 | -83.96549 | 23569 ft | 432 kts | 193° |
| 2026-05-07 06:22 | 33.59762 | -83.95093 | 22256 ft | 460 kts | 158° |
| 2026-05-07 06:22 | 33.57983 | -83.93683 | 21845 ft | 467 kts | 147° |
| 2026-05-07 06:23 | 33.55748 | -83.90811 | 21256 ft | 475 kts | 129° |
| 2026-05-07 06:23 | 33.53940 | -83.86049 | 20491 ft | 478 kts | 105° |
| 2026-05-07 06:23 | 33.53593 | -83.82108 | 19922 ft | 475 kts | 87° |
| 2026-05-07 06:23 | 33.53878 | -83.79470 | 19541 ft | 471 kts | 75° |
| 2026-05-07 06:24 | 33.55013 | -83.75886 | 19002 ft | 461 kts | 57° |
| 2026-05-07 06:24 | 33.56933 | -83.72827 | 18451 ft | 447 kts | 39° |
| 2026-05-07 06:24 | 33.59367 | -83.70624 | 17862 ft | 432 kts | 22° |
| 2026-05-07 06:24 | 33.62062 | -83.69330 | 17260 ft | 416 kts | 7° |
| 2026-05-07 06:25 | 33.64877 | -83.68902 | 16659 ft | 401 kts | 353° |
| 2026-05-07 06:25 | 33.67578 | -83.69359 | 16050 ft | 385 kts | 336° |
| 2026-05-07 06:25 | 33.69900 | -83.70796 | 15483 ft | 370 kts | 318° |
| 2026-05-07 06:25 | 33.71681 | -83.72952 | 14923 ft | 360 kts | 302° |
| 2026-05-07 06:26 | 33.72848 | -83.75561 | 14372 ft | 353 kts | 288° |
| 2026-05-07 06:26 | 33.73362 | -83.78411 | 13822 ft | 348 kts | 274° |
| 2026-05-07 06:26 | 33.73285 | -83.81309 | 13216 ft | 346 kts | 262° |
| 2026-05-07 06:26 | 33.72611 | -83.84077 | 12604 ft | 346 kts | 247° |
| 2026-05-07 06:27 | 33.71519 | -83.86638 | 12023 ft | 344 kts | 243° |
| 2026-05-07 06:27 | 33.70360 | -83.89144 | 11439 ft | 341 kts | 243° |
| 2026-05-07 06:27 | 33.69207 | -83.91623 | 10878 ft | 339 kts | 242° |
| 2026-05-07 06:27 | 33.68071 | -83.94096 | 10312 ft | 337 kts | 243° |
| 2026-05-07 06:28 | 33.66957 | -83.96555 | 9742 ft | 334 kts | 243° |
| 2026-05-07 06:28 | 33.65854 | -83.99000 | 9137 ft | 332 kts | 243° |
| 2026-05-07 06:28 | 33.64804 | -84.01349 | 8558 ft | 329 kts | 244° |
| 2026-05-07 06:28 | 33.64136 | -84.03958 | 8030 ft | 326 kts | 261° |
| 2026-05-07 06:29 | 33.64129 | -84.06665 | 7554 ft | 324 kts | 274° |
| 2026-05-07 06:29 | 33.64628 | -84.09293 | 7067 ft | 323 kts | 285° |
| 2026-05-07 06:29 | 33.65631 | -84.11707 | 6592 ft | 324 kts | 297° |
| 2026-05-07 06:29 | 33.67025 | -84.13833 | 6112 ft | 325 kts | 308° |
| 2026-05-07 06:30 | 33.68760 | -84.15587 | 5630 ft | 331 kts | 322° |
| 2026-05-07 06:30 | 33.70979 | -84.16463 | 5167 ft | 345 kts | 349° |
| 2026-05-07 06:30 | 33.73370 | -84.16365 | 5029 ft | 341 kts | 4° |
| 2026-05-07 06:30 | 33.75645 | -84.15732 | 4994 ft | 331 kts | 13° |
| 2026-05-07 06:31 | 33.77721 | -84.14650 | 4984 ft | 321 kts | 29° |
| 2026-05-07 06:31 | 33.79414 | -84.13033 | 4983 ft | 309 kts | 41° |
| 2026-05-07 06:31 | 33.80933 | -84.11278 | 4977 ft | 296 kts | 44° |
| 2026-05-07 06:31 | 33.82375 | -84.09582 | 4987 ft | 284 kts | 43° |
| 2026-05-07 06:32 | 33.83743 | -84.07928 | 4990 ft | 274 kts | 50° |
| 2026-05-07 06:32 | 33.84555 | -84.05923 | 4990 ft | 264 kts | 83° |
| 2026-05-07 06:32 | 33.84471 | -84.03787 | 5008 ft | 250 kts | 117° |
| 2026-05-07 06:32 | 33.83681 | -84.02001 | 4991 ft | 237 kts | 136° |
| 2026-05-07 06:33 | 33.82470 | -84.00800 | 4987 ft | 220 kts | 164° |
| 2026-05-07 06:33 | 33.81019 | -84.00392 | 5008 ft | 211 kts | 187° |
| 2026-05-07 06:33 | 33.79554 | -84.00548 | 5002 ft | 213 kts | 200° |
| 2026-05-07 06:33 | 33.78224 | -84.01276 | 4991 ft | 209 kts | 218° |
| 2026-05-07 06:34 | 33.77071 | -84.02298 | 4980 ft | 209 kts | 220° |
| 2026-05-07 06:34 | 33.75910 | -84.03343 | 4986 ft | 208 kts | 217° |
| 2026-05-07 06:34 | 33.74723 | -84.04326 | 4980 ft | 207 kts | 218° |
| 2026-05-07 06:34 | 33.73565 | -84.05351 | 4985 ft | 206 kts | 219° |
| 2026-05-07 06:35 | 33.72416 | -84.06380 | 4968 ft | 206 kts | 220° |
| 2026-05-07 06:35 | 33.71270 | -84.07405 | 4990 ft | 205 kts | 220° |
| 2026-05-07 06:35 | 33.70122 | -84.08423 | 4986 ft | 205 kts | 219° |
| 2026-05-07 06:35 | 33.68987 | -84.09453 | 4974 ft | 205 kts | 221° |
| 2026-05-07 06:36 | 33.67833 | -84.10459 | 4982 ft | 208 kts | 214° |
| 2026-05-07 06:36 | 33.66646 | -84.11444 | 4989 ft | 204 kts | 220° |
| 2026-05-07 06:36 | 33.65576 | -84.12571 | 4827 ft | 208 kts | 234° |
| 2026-05-07 06:36 | 33.64997 | -84.14187 | 4535 ft | 215 kts | 251° |
| 2026-05-07 06:37 | 33.64874 | -84.16006 | 4203 ft | 222 kts | 265° |
| 2026-05-07 06:37 | 33.64966 | -84.17819 | 3896 ft | 214 kts | 266° |
| 2026-05-07 06:37 | 33.64895 | -84.19508 | 3588 ft | 194 kts | 258° |
| 2026-05-07 06:37 | 33.64988 | -84.21131 | 3288 ft | 197 kts | 271° |
| 2026-05-07 06:38 | 33.65036 | -84.22765 | 3064 ft | 195 kts | 260° |
| 2026-05-07 06:38 | 33.64976 | -84.24398 | 3018 ft | 196 kts | 261° |
| 2026-05-07 06:38 | 33.64969 | -84.25978 | 2863 ft | 179 kts | 261° |
| 2026-05-07 06:38 | 33.64993 | -84.27392 | 2705 ft | 163 kts | 266° |
| 2026-05-07 06:39 | 33.64983 | -84.28636 | 2717 ft | 144 kts | 251° |
| 2026-05-07 06:39 | 33.64964 | -84.29914 | 2727 ft | 163 kts | 266° |
| 2026-05-07 06:39 | 33.64937 | -84.31348 | 2597 ft | 176 kts | 260° |
| 2026-05-07 06:39 | 33.64918 | -84.32767 | 2398 ft | 158 kts | 262° |
| 2026-05-07 06:40 | 33.64959 | -84.34048 | 2144 ft | 147 kts | 258° |
| 2026-05-07 06:40 | 33.64984 | -84.35303 | 2003 ft | 160 kts | 271° |
| 2026-05-07 06:40 | 33.65199 | -84.36628 | 1715 ft | 172 kts | 286° |
| 2026-05-07 06:40 | 33.65467 | -84.37939 | 1584 ft | 160 kts | 257° |
| 2026-05-07 06:41 | 33.65025 | -84.39163 | 1343 ft | 157 kts | 250° |
| 2026-05-07 06:41 | 33.64906 | -84.40504 | 1189 ft | 165 kts | 268° |
| 2026-05-07 06:41 | 33.64946 | -84.41831 | 1055 ft | 150 kts | 271° |
| 2026-05-07 06:41 | 33.64953 | -84.42959 | 1034 ft | 109 kts | 271° |
| 2026-05-07 06:42 | 33.64955 | -84.43516 | 1034 ft | 44 kts | 270° |
| 2026-05-07 06:42 | 33.64917 | -84.43733 | 1035 ft | 22 kts | 203° |
| 2026-05-07 06:42 | 33.64794 | -84.43825 | 1034 ft | 19 kts | 195° |
| 2026-05-07 06:42 | 33.64677 | -84.43820 | 1034 ft | 17 kts | 176° |